Time;durP1;ratioP1;P1;durP2;ratioP2;P2;SDS_P1;SDS_P2;PMS_P1;PMS_P2;Temp;Humidity;BMP_temperature;BMP_pressure;BME280_temperature;BME280_humidity;BME280_pressure;Samples;Min_cycle;Max_cycle;Signal;HPM_P1;HPM_P2
2021/11/26 00:00:58;;;;;;;42.40;20.30;;;;;;;;;;5110238;28;20432;-67
2021/11/26 00:03:24;;;;;;;47.10;22.08;;;;;;;;;;5110851;28;20028;-67
2021/11/26 00:05:50;;;;;;;50.00;21.95;;;;;;;;;;5108754;28;20085;-66
2021/11/26 00:08:16;;;;;;;49.05;23.50;;;;;;;;;;5110623;28;20036;-67
2021/11/26 00:10:42;;;;;;;41.75;20.50;;;;;;;;;;5110249;28;20094;-66
2021/11/26 00:13:09;;;;;;;44.55;20.85;;;;;;;;;;5111092;28;20444;-67
2021/11/26 00:15:39;;;;;;;45.92;22.25;;;;;;;;;;5110860;28;20020;-67
2021/11/26 00:18:25;;;;;;;41.22;20.27;;;;;;;;;;5106508;28;20063;-67
2021/11/26 00:20:51;;;;;;;37.83;18.58;;;;;;;;;;5106112;28;20015;-66
2021/11/26 00:23:17;;;;;;;45.80;19.27;;;;;;;;;;5107681;28;20039;-67
2021/11/26 00:25:43;;;;;;;43.10;20.17;;;;;;;;;;5109793;28;20043;-66
2021/11/26 00:28:09;;;;;;;44.95;19.55;;;;;;;;;;5109418;28;20493;-67
2021/11/26 00:30:35;;;;;;;42.25;19.17;;;;;;;;;;5108897;28;20035;-66
2021/11/26 00:33:01;;;;;;;41.05;19.80;;;;;;;;;;5109994;28;20059;-67
2021/11/26 00:35:27;;;;;;;42.85;18.58;;;;;;;;;;5109183;28;20019;-66
2021/11/26 00:37:53;;;;;;;43.08;18.30;;;;;;;;;;5106312;28;20020;-66
2021/11/26 00:40:19;;;;;;;43.40;18.85;;;;;;;;;;5111885;28;20471;-66
2021/11/26 00:42:45;;;;;;;39.85;18.92;;;;;;;;;;5108472;28;20028;-66
2021/11/26 00:45:12;;;;;;;39.78;18.27;;;;;;;;;;5110325;28;20046;-66
2021/11/26 00:47:39;;;;;;;41.00;18.80;;;;;;;;;;5109629;28;20032;-67
2021/11/26 00:50:05;;;;;;;33.70;16.73;;;;;;;;;;5109337;28;20474;-66
2021/11/26 00:52:31;;;;;;;40.83;17.98;;;;;;;;;;5109696;28;20436;-66
2021/11/26 00:54:57;;;;;;;88.50;19.30;;;;;;;;;;5109949;28;20027;-66
2021/11/26 00:57:23;;;;;;;37.30;17.00;;;;;;;;;;5107288;28;20110;-65
2021/11/26 00:59:49;;;;;;;39.88;18.50;;;;;;;;;;5111364;28;20035;-65
2021/11/26 01:02:15;;;;;;;93.90;18.33;;;;;;;;;;5114106;28;20063;-65
2021/11/26 01:04:42;;;;;;;282.98;21.45;;;;;;;;;;5113875;28;20023;-66
2021/11/26 01:07:08;;;;;;;99.13;19.83;;;;;;;;;;5113662;28;20406;-65
2021/11/26 01:09:34;;;;;;;160.57;21.80;;;;;;;;;;5113747;28;20083;-65
2021/11/26 01:12:00;;;;;;;95.55;18.55;;;;;;;;;;5110816;28;20030;-65
2021/11/26 01:14:26;;;;;;;86.43;18.52;;;;;;;;;;5113379;28;20027;-66
2021/11/26 01:16:53;;;;;;;47.78;16.98;;;;;;;;;;5113526;28;20036;-66
2021/11/26 01:19:19;;;;;;;109.05;18.08;;;;;;;;;;5114757;28;20027;-66
2021/11/26 01:21:45;;;;;;;145.32;18.70;;;;;;;;;;5111704;28;20036;-66
2021/11/26 01:24:11;;;;;;;188.93;19.30;;;;;;;;;;5110744;28;20046;-66
2021/11/26 01:26:37;;;;;;;121.78;18.05;;;;;;;;;;5111281;28;20056;-67
2021/11/26 01:29:03;;;;;;;67.35;17.83;;;;;;;;;;5112166;28;20023;-66
2021/11/26 01:31:29;;;;;;;92.22;17.17;;;;;;;;;;5113711;28;20050;-66
2021/11/26 01:33:56;;;;;;;116.05;18.15;;;;;;;;;;5112437;28;20146;-67
2021/11/26 01:36:22;;;;;;;142.30;17.25;;;;;;;;;;5111202;28;20152;-66
2021/11/26 01:38:48;;;;;;;64.00;16.65;;;;;;;;;;5110855;28;20100;-66
2021/11/26 01:41:14;;;;;;;45.78;16.38;;;;;;;;;;5111350;28;20116;-66
2021/11/26 01:43:40;;;;;;;37.63;15.93;;;;;;;;;;5113172;28;20026;-66
2021/11/26 01:46:10;;;;;;;34.95;14.93;;;;;;;;;;5112758;28;20064;-66
2021/11/26 01:48:37;;;;;;;56.58;16.77;;;;;;;;;;5110722;28;20027;-66
2021/11/26 01:51:03;;;;;;;56.95;16.38;;;;;;;;;;5111192;28;20520;-66
2021/11/26 01:53:29;;;;;;;47.10;15.40;;;;;;;;;;5110703;28;20015;-66
2021/11/26 01:55:55;;;;;;;76.95;15.85;;;;;;;;;;5111006;28;20034;-66
2021/11/26 01:58:22;;;;;;;49.38;16.02;;;;;;;;;;5110248;28;20096;-66
2021/11/26 02:00:48;;;;;;;35.20;14.55;;;;;;;;;;5110681;28;20035;-66
2021/11/26 02:03:15;;;;;;;42.17;15.63;;;;;;;;;;5110783;28;20233;-67
2021/11/26 02:05:41;;;;;;;165.68;15.45;;;;;;;;;;5110539;28;20118;-66
2021/11/26 02:08:08;;;;;;;95.18;14.85;;;;;;;;;;5110650;28;20027;-67
2021/11/26 02:10:34;;;;;;;138.80;15.88;;;;;;;;;;5111691;28;20034;-67
2021/11/26 02:13:00;;;;;;;181.23;16.52;;;;;;;;;;5112079;28;20486;-66
2021/11/26 02:15:28;;;;;;;86.95;14.27;;;;;;;;;;5110461;28;20039;-66
2021/11/26 02:17:55;;;;;;;164.82;14.77;;;;;;;;;;5110513;28;20481;-66
2021/11/26 02:20:23;;;;;;;100.53;12.52;;;;;;;;;;5110359;28;20418;-66
2021/11/26 02:22:49;;;;;;;117.75;12.27;;;;;;;;;;5111499;28;20036;-67
2021/11/26 02:25:15;;;;;;;94.68;11.52;;;;;;;;;;5112596;28;20043;-66
2021/11/26 02:27:43;;;;;;;94.45;11.90;;;;;;;;;;5110555;28;20060;-66
2021/11/26 02:30:16;;;;;;;162.55;12.18;;;;;;;;;;5110399;28;20051;-66
2021/11/26 02:32:43;;;;;;;79.80;12.55;;;;;;;;;;5109977;28;20046;-66
2021/11/26 02:35:09;;;;;;;70.05;11.70;;;;;;;;;;5110086;28;20108;-66
2021/11/26 02:37:36;;;;;;;145.93;12.93;;;;;;;;;;5111398;28;20073;-66
2021/11/26 02:40:02;;;;;;;94.93;12.77;;;;;;;;;;5113117;28;20475;-66
2021/11/26 02:42:28;;;;;;;43.35;11.13;;;;;;;;;;5110235;28;20471;-66
2021/11/26 02:44:54;;;;;;;141.10;12.20;;;;;;;;;;5109606;28;20047;-66
2021/11/26 02:47:20;;;;;;;69.65;11.07;;;;;;;;;;5108223;28;20372;-66
2021/11/26 02:49:46;;;;;;;134.88;12.25;;;;;;;;;;5111317;28;20103;-66
2021/11/26 02:52:12;;;;;;;60.22;9.80;;;;;;;;;;5112355;28;20099;-65
2021/11/26 02:54:38;;;;;;;57.50;10.27;;;;;;;;;;5109573;28;20535;-66
2021/11/26 02:57:04;;;;;;;43.72;10.40;;;;;;;;;;5109772;28;20027;-66
2021/11/26 02:59:30;;;;;;;105.15;8.52;;;;;;;;;;5109246;28;20091;-66
2021/11/26 03:01:56;;;;;;;70.78;9.45;;;;;;;;;;5109788;28;20043;-66
2021/11/26 03:04:22;;;;;;;70.85;9.07;;;;;;;;;;5112951;28;20032;-66
2021/11/26 03:06:58;;;;;;;140.85;10.38;;;;;;;;;;5109655;28;20071;-66
2021/11/26 03:09:24;;;;;;;34.35;8.05;;;;;;;;;;5109593;28;20229;-66
2021/11/26 03:11:50;;;;;;;143.02;9.20;;;;;;;;;;5109202;28;20024;-66
2021/11/26 03:14:16;;;;;;;88.45;8.93;;;;;;;;;;5108406;28;20036;-65
2021/11/26 03:16:42;;;;;;;33.17;7.32;;;;;;;;;;5111143;28;20481;-65
2021/11/26 03:19:08;;;;;;;34.58;7.78;;;;;;;;;;5110835;28;20032;-66
2021/11/26 03:21:34;;;;;;;39.33;7.45;;;;;;;;;;5109070;28;20067;-66
2021/11/26 03:24:00;;;;;;;35.58;7.25;;;;;;;;;;5109034;28;20057;-67
2021/11/26 03:26:26;;;;;;;30.25;7.68;;;;;;;;;;5109032;28;20039;-67
2021/11/26 03:28:52;;;;;;;28.00;7.63;;;;;;;;;;5109595;28;20633;-67
2021/11/26 03:31:18;;;;;;;20.48;7.82;;;;;;;;;;5110651;28;20039;-66
2021/11/26 03:33:44;;;;;;;18.88;7.28;;;;;;;;;;5109235;28;20114;-67
2021/11/26 03:36:10;;;;;;;18.20;7.40;;;;;;;;;;5108875;28;20028;-67
2021/11/26 03:38:36;;;;;;;41.30;8.27;;;;;;;;;;5108970;28;20077;-67
2021/11/26 03:41:02;;;;;;;39.72;8.93;;;;;;;;;;5108734;28;20520;-66
2021/11/26 03:43:28;;;;;;;24.00;8.82;;;;;;;;;;5112375;28;20027;-66
2021/11/26 03:45:54;;;;;;;25.08;7.65;;;;;;;;;;5108928;28;20471;-66
2021/11/26 03:48:20;;;;;;;39.78;8.90;;;;;;;;;;5109041;28;20024;-66
2021/11/26 03:50:46;;;;;;;40.95;9.25;;;;;;;;;;5108945;28;20019;-66
2021/11/26 03:53:12;;;;;;;59.05;9.10;;;;;;;;;;5108697;28;20027;-65
2021/11/26 03:55:38;;;;;;;64.82;8.55;;;;;;;;;;5110282;28;20024;-66
2021/11/26 03:58:04;;;;;;;59.03;8.77;;;;;;;;;;5111885;28;20035;-66
2021/11/26 04:00:30;;;;;;;32.67;7.55;;;;;;;;;;5108587;28;20494;-66
2021/11/26 04:02:57;;;;;;;41.08;6.28;;;;;;;;;;5108475;28;20030;-66
2021/11/26 04:05:23;;;;;;;22.35;4.75;;;;;;;;;;5108495;28;20118;-66
2021/11/26 04:07:49;;;;;;;20.65;4.75;;;;;;;;;;5109450;28;20024;-65
2021/11/26 04:10:16;;;;;;;20.20;5.15;;;;;;;;;;5111348;28;20042;-66
2021/11/26 04:12:43;;;;;;;37.97;8.30;;;;;;;;;;5108228;28;20035;-66
2021/11/26 04:15:10;;;;;;;15.70;6.45;;;;;;;;;;5108371;28;20111;-66
2021/11/26 04:17:36;;;;;;;31.98;7.13;;;;;;;;;;5108414;28;20474;-66
2021/11/26 04:20:04;;;;;;;17.17;7.80;;;;;;;;;;5108588;28;20032;-65
2021/11/26 04:22:30;;;;;;;18.35;8.23;;;;;;;;;;5111540;28;20053;-64
2021/11/26 04:24:56;;;;;;;17.33;8.70;;;;;;;;;;5108956;28;20035;-65
2021/11/26 04:27:22;;;;;;;17.02;8.65;;;;;;;;;;5108044;28;20485;-64
2021/11/26 04:29:48;;;;;;;20.40;8.43;;;;;;;;;;5108289;28;20027;-64
2021/11/26 04:32:14;;;;;;;29.50;9.52;;;;;;;;;;5103992;28;20032;-62
2021/11/26 04:34:40;;;;;;;24.95;9.50;;;;;;;;;;5105628;28;20024;-63
2021/11/26 04:37:06;;;;;;;28.52;9.55;;;;;;;;;;5110979;28;20198;-63
2021/11/26 04:39:33;;;;;;;26.90;9.70;;;;;;;;;;5108039;28;20058;-64
2021/11/26 04:41:59;;;;;;;25.33;9.45;;;;;;;;;;5106467;28;20024;-65
2021/11/26 04:44:25;;;;;;;20.27;9.80;;;;;;;;;;5106008;28;20024;-63
2021/11/26 04:46:51;;;;;;;22.90;9.20;;;;;;;;;;5112556;28;20502;-65
2021/11/26 04:49:17;;;;;;;24.98;9.02;;;;;;;;;;5114948;28;20023;-63
2021/11/26 04:51:43;;;;;;;23.58;8.73;;;;;;;;;;5112176;28;20024;-64
2021/11/26 04:54:09;;;;;;;25.63;10.00;;;;;;;;;;5112108;28;20425;-64
2021/11/26 04:56:35;;;;;;;26.55;9.48;;;;;;;;;;5111808;28;20020;-62
2021/11/26 04:59:01;;;;;;;35.15;10.13;;;;;;;;;;5111034;28;20032;-65
2021/11/26 05:01:27;;;;;;;18.17;9.25;;;;;;;;;;5115260;28;20080;-64
2021/11/26 05:03:53;;;;;;;22.23;9.55;;;;;;;;;;5112181;28;20319;-64
2021/11/26 05:06:20;;;;;;;19.77;8.90;;;;;;;;;;5111829;28;20475;-65
2021/11/26 05:08:46;;;;;;;17.45;8.88;;;;;;;;;;5111665;28;20024;-64
2021/11/26 05:11:12;;;;;;;17.75;8.90;;;;;;;;;;5111876;28;20071;-64
2021/11/26 05:13:43;;;;;;;20.00;8.73;;;;;;;;;;5114067;28;20491;-64
2021/11/26 05:16:12;;;;;;;19.75;8.73;;;;;;;;;;5113307;28;20027;-64
2021/11/26 05:18:38;;;;;;;17.65;8.63;;;;;;;;;;5111537;28;20027;-64
2021/11/26 05:21:04;;;;;;;18.42;8.48;;;;;;;;;;5111805;28;20027;-64
2021/11/26 05:23:30;;;;;;;19.48;9.77;;;;;;;;;;5111709;28;20023;-64
2021/11/26 05:25:56;;;;;;;19.85;8.60;;;;;;;;;;5109929;28;20031;-64
2021/11/26 05:28:23;;;;;;;20.15;8.98;;;;;;;;;;5110479;28;20024;-70
2021/11/26 05:30:49;;;;;;;21.38;10.13;;;;;;;;;;5111040;28;20024;-69
2021/11/26 05:33:15;;;;;;;28.25;10.63;;;;;;;;;;5111501;28;20054;-70
2021/11/26 05:35:41;;;;;;;19.92;10.25;;;;;;;;;;5110831;28;20024;-70
2021/11/26 05:38:07;;;;;;;25.05;10.02;;;;;;;;;;5111506;28;20028;-70
2021/11/26 05:40:33;;;;;;;25.95;10.77;;;;;;;;;;5113738;28;20031;-69
2021/11/26 05:42:59;;;;;;;38.80;10.25;;;;;;;;;;5112005;28;20019;-69
2021/11/26 05:45:26;;;;;;;23.83;10.50;;;;;;;;;;5110745;28;20039;-69
2021/11/26 05:47:52;;;;;;;22.67;9.77;;;;;;;;;;5111195;28;20022;-69
2021/11/26 05:50:19;;;;;;;21.55;10.38;;;;;;;;;;5111329;28;20022;-69
2021/11/26 05:52:45;;;;;;;22.63;9.18;;;;;;;;;;5112833;28;20055;-69
2021/11/26 05:55:13;;;;;;;19.60;10.02;;;;;;;;;;5112670;28;20019;-69
2021/11/26 05:57:39;;;;;;;18.75;10.18;;;;;;;;;;5110427;28;20070;-69
2021/11/26 06:00:06;;;;;;;16.88;9.57;;;;;;;;;;5110771;28;20031;-69
2021/11/26 06:02:32;;;;;;;16.42;8.68;;;;;;;;;;5109559;28;20020;-70
2021/11/26 06:04:58;;;;;;;18.63;9.50;;;;;;;;;;5110660;28;20028;-70
2021/11/26 06:07:24;;;;;;;20.77;10.05;;;;;;;;;;5114067;28;20110;-70
2021/11/26 06:09:50;;;;;;;22.08;9.75;;;;;;;;;;5110417;28;20495;-70
2021/11/26 06:12:17;;;;;;;22.50;9.85;;;;;;;;;;5110842;28;20035;-70
2021/11/26 06:14:42;;;;;;;19.17;9.35;;;;;;;;;;5110149;28;20023;-70
2021/11/26 06:17:09;;;;;;;23.55;9.38;;;;;;;;;;5110800;28;20129;-69
2021/11/26 06:19:35;;;;;;;20.65;9.23;;;;;;;;;;5113333;28;20026;-70
2021/11/26 06:22:01;;;;;;;21.65;9.75;;;;;;;;;;5111910;28;20444;-70
2021/11/26 06:24:27;;;;;;;20.00;10.07;;;;;;;;;;5109885;28;20112;-70
2021/11/26 06:26:53;;;;;;;23.90;10.90;;;;;;;;;;5110675;28;20059;-70
2021/11/26 06:29:19;;;;;;;39.80;13.80;;;;;;;;;;5109143;28;20081;-70
2021/11/26 06:31:46;;;;;;;26.67;11.77;;;;;;;;;;5111276;28;20056;-71
2021/11/26 06:34:12;;;;;;;28.05;12.77;;;;;;;;;;5113921;28;20367;-70
2021/11/26 06:36:38;;;;;;;27.13;12.35;;;;;;;;;;5110246;28;20039;-70
2021/11/26 06:39:04;;;;;;;27.60;11.73;;;;;;;;;;5108647;28;20030;-70
2021/11/26 06:41:31;;;;;;;27.60;12.80;;;;;;;;;;5109313;28;20030;-71
2021/11/26 06:43:57;;;;;;;26.65;13.00;;;;;;;;;;5109710;28;20044;-71
2021/11/26 06:46:23;;;;;;;23.27;11.70;;;;;;;;;;5113460;28;20090;-70
2021/11/26 06:48:49;;;;;;;29.17;14.38;;;;;;;;;;5108966;28;20119;-70
2021/11/26 06:51:15;;;;;;;26.98;13.68;;;;;;;;;;5106453;28;20110;-70
2021/11/26 06:53:41;;;;;;;27.50;13.70;;;;;;;;;;5107618;28;20049;-70
2021/11/26 06:56:07;;;;;;;30.75;15.07;;;;;;;;;;5107234;28;20107;-71
2021/11/26 06:58:33;;;;;;;25.45;12.57;;;;;;;;;;5111021;28;20487;-70
2021/11/26 07:00:59;;;;;;;22.55;10.85;;;;;;;;;;5110026;28;20036;-70
2021/11/26 07:03:25;;;;;;;18.25;10.10;;;;;;;;;;5108780;28;20016;-70
2021/11/26 07:05:51;;;;;;;24.80;11.88;;;;;;;;;;5109394;28;20043;-70
2021/11/26 07:08:18;;;;;;;21.15;10.25;;;;;;;;;;5109411;28;20031;-70
2021/11/26 07:10:44;;;;;;;20.40;10.55;;;;;;;;;;5111514;28;20027;-71
2021/11/26 07:13:10;;;;;;;18.55;9.73;;;;;;;;;;5111582;28;20376;-66
2021/11/26 07:15:36;;;;;;;20.17;9.93;;;;;;;;;;5108583;28;20039;-66
2021/11/26 07:18:03;;;;;;;19.27;8.55;;;;;;;;;;5109546;28;20486;-66
2021/11/26 07:20:29;;;;;;;15.60;8.25;;;;;;;;;;5109434;28;20027;-66
2021/11/26 07:22:55;;;;;;;18.13;9.13;;;;;;;;;;5109255;28;20156;-66
2021/11/26 07:25:21;;;;;;;17.58;9.18;;;;;;;;;;5112423;28;20039;-65
2021/11/26 07:27:47;;;;;;;31.00;10.65;;;;;;;;;;5108690;28;20034;-65
2021/11/26 07:30:14;;;;;;;114.93;12.25;;;;;;;;;;5109297;28;20113;-66
2021/11/26 07:32:40;;;;;;;117.43;11.98;;;;;;;;;;5108744;28;20160;-65
2021/11/26 07:35:07;;;;;;;97.53;11.30;;;;;;;;;;5108992;28;20038;-65
2021/11/26 07:37:35;;;;;;;52.05;11.15;;;;;;;;;;5111441;28;20464;-65
2021/11/26 07:40:01;;;;;;;134.38;9.32;;;;;;;;;;5111894;28;20019;-65
2021/11/26 07:42:27;;;;;;;188.63;9.50;;;;;;;;;;5108772;28;20111;-65
2021/11/26 07:44:53;;;;;;;293.00;11.48;;;;;;;;;;5109039;28;20023;-65
2021/11/26 07:47:19;;;;;;;113.10;11.00;;;;;;;;;;5108642;28;20039;-65
2021/11/26 07:49:46;;;;;;;117.47;10.40;;;;;;;;;;5110370;28;20110;-65
2021/11/26 07:52:13;;;;;;;171.23;10.65;;;;;;;;;;5112556;28;20019;-65
2021/11/26 07:54:39;;;;;;;74.65;9.73;;;;;;;;;;5108927;28;20124;-65
2021/11/26 07:57:05;;;;;;;268.23;12.82;;;;;;;;;;5108597;28;20168;-65
2021/11/26 07:59:32;;;;;;;96.93;9.70;;;;;;;;;;5107892;28;20472;-65
2021/11/26 08:01:58;;;;;;;144.63;9.50;;;;;;;;;;5108546;28;20011;-65
2021/11/26 08:04:24;;;;;;;103.47;12.73;;;;;;;;;;5112148;28;20463;-65
2021/11/26 08:06:50;;;;;;;69.30;13.23;;;;;;;;;;5108402;28;20072;-65
2021/11/26 08:09:17;;;;;;;149.10;12.70;;;;;;;;;;5108388;28;20031;-66
2021/11/26 08:11:43;;;;;;;136.25;13.27;;;;;;;;;;5108455;28;20110;-66
2021/11/26 08:14:10;;;;;;;147.05;12.45;;;;;;;;;;5108415;28;20117;-66
2021/11/26 08:16:36;;;;;;;110.60;11.98;;;;;;;;;;5111065;28;20367;-66
2021/11/26 08:19:04;;;;;;;78.57;9.80;;;;;;;;;;5109565;28;20471;-66
2021/11/26 08:21:30;;;;;;;75.70;9.40;;;;;;;;;;5108041;28;20024;-66
2021/11/26 08:23:56;;;;;;;83.30;9.88;;;;;;;;;;5108159;28;20321;-66
2021/11/26 08:26:22;;;;;;;43.58;7.57;;;;;;;;;;5108623;28;20119;-65
2021/11/26 08:28:48;;;;;;;18.77;6.63;;;;;;;;;;5109937;28;20472;-66
2021/11/26 08:31:14;;;;;;;34.65;6.93;;;;;;;;;;5111857;28;20044;-67
2021/11/26 08:33:40;;;;;;;16.75;6.43;;;;;;;;;;5108228;28;20027;-66
2021/11/26 08:36:06;;;;;;;25.85;8.30;;;;;;;;;;5107872;28;20474;-66
2021/11/26 08:38:32;;;;;;;17.15;8.10;;;;;;;;;;5108439;28;20024;-66
2021/11/26 08:40:58;;;;;;;13.07;6.82;;;;;;;;;;5108125;28;20028;-66
2021/11/26 08:43:24;;;;;;;14.15;7.20;;;;;;;;;;5110179;28;20045;-65
2021/11/26 08:45:50;;;;;;;11.48;6.55;;;;;;;;;;5107712;28;20463;-66
2021/11/26 08:48:17;;;;;;;14.68;7.28;;;;;;;;;;5108250;28;20141;-66
2021/11/26 08:50:44;;;;;;;11.13;6.20;;;;;;;;;;5107446;28;20072;-65
2021/11/26 08:53:11;;;;;;;15.35;6.75;;;;;;;;;;5108352;28;20016;-65
2021/11/26 08:55:38;;;;;;;17.20;7.78;;;;;;;;;;5110794;28;20023;-65
2021/11/26 08:58:04;;;;;;;15.88;7.28;;;;;;;;;;5109071;28;20012;-65
2021/11/26 09:00:33;;;;;;;12.23;6.93;;;;;;;;;;5108410;28;20598;-65
2021/11/26 09:02:59;;;;;;;13.23;7.22;;;;;;;;;;5106611;28;20399;-65
2021/11/26 09:05:26;;;;;;;14.20;7.15;;;;;;;;;;5107733;28;20031;-65
2021/11/26 09:07:57;;;;;;;14.73;8.02;;;;;;;;;;5108592;28;20714;-65
2021/11/26 09:10:23;;;;;;;11.60;7.50;;;;;;;;;;5107718;28;20019;-65
2021/11/26 09:12:49;;;;;;;13.82;7.90;;;;;;;;;;5107954;28;20027;-65
2021/11/26 09:15:15;;;;;;;12.13;7.85;;;;;;;;;;5107835;28;20080;-65
2021/11/26 09:17:42;;;;;;;12.98;7.72;;;;;;;;;;5108110;28;20450;-65
2021/11/26 09:20:08;;;;;;;10.95;6.55;;;;;;;;;;5109225;28;20073;-65
2021/11/26 09:22:34;;;;;;;8.48;5.00;;;;;;;;;;5114171;28;20019;-65
2021/11/26 09:25:00;;;;;;;8.43;4.38;;;;;;;;;;5112864;28;20459;-65
2021/11/26 09:27:26;;;;;;;9.63;5.20;;;;;;;;;;5110189;28;20394;-65
2021/11/26 09:29:52;;;;;;;7.82;4.50;;;;;;;;;;5110308;28;20019;-64
2021/11/26 09:32:18;;;;;;;10.43;5.05;;;;;;;;;;5111600;28;20040;-65
2021/11/26 09:34:44;;;;;;;10.20;4.60;;;;;;;;;;5113169;28;20023;-65
2021/11/26 09:37:11;;;;;;;7.20;4.00;;;;;;;;;;5112576;28;20463;-65
2021/11/26 09:39:38;;;;;;;;;;;;;;;;;;5111863;28;20134;-62
2021/11/26 09:42:04;;;;;;;8.88;3.72;;;;;;;;;;5110975;28;20578;-64
2021/11/26 09:44:33;;;;;;;5.95;2.80;;;;;;;;;;5111465;28;20088;-65
2021/11/26 09:46:59;;;;;;;5.65;2.83;;;;;;;;;;5112488;28;20028;-65
2021/11/26 09:49:25;;;;;;;5.57;2.83;;;;;;;;;;5114591;28;20386;-65
2021/11/26 09:51:52;;;;;;;3.53;2.13;;;;;;;;;;5111500;28;20032;-66
2021/11/26 09:54:18;;;;;;;5.35;2.92;;;;;;;;;;5110959;28;20110;-65
2021/11/26 09:56:44;;;;;;;5.05;2.67;;;;;;;;;;5111288;28;20051;-68
2021/11/26 09:59:10;;;;;;;6.50;3.50;;;;;;;;;;5112239;28;20031;-64
2021/11/26 10:01:36;;;;;;;4.55;2.55;;;;;;;;;;5113523;28;20030;-65
2021/11/26 10:04:02;;;;;;;6.05;2.47;;;;;;;;;;5111864;28;20107;-67
2021/11/26 10:06:36;;;;;;;3.80;1.92;;;;;;;;;;5110560;28;20036;-69
2021/11/26 10:09:16;;;;;;;3.17;1.45;;;;;;;;;;5110734;28;20027;-67
2021/11/26 10:11:45;;;;;;;2.13;1.25;;;;;;;;;;5111058;28;20059;-67
2021/11/26 10:14:15;;;;;;;4.53;1.30;;;;;;;;;;5110447;28;20456;-67
2021/11/26 10:17:12;;;;;;;1.63;0.90;;;;;;;;;;5112941;28;20032;-67
2021/11/26 10:19:41;;;;;;;3.37;1.33;;;;;;;;;;5109655;28;20474;-66
2021/11/26 10:22:14;;;;;;;1.05;0.75;;;;;;;;;;5112138;28;20248;-67
2021/11/26 10:24:41;;;;;;;2.08;0.95;;;;;;;;;;5110905;28;20066;-67
2021/11/26 10:27:07;;;;;;;3.55;0.98;;;;;;;;;;5111991;28;20036;-67
2021/11/26 10:29:35;;;;;;;3.63;1.35;;;;;;;;;;5109656;28;20026;-66
2021/11/26 10:32:13;;;;;;;6.05;1.83;;;;;;;;;;5109213;28;20032;-65
2021/11/26 10:34:41;;;;;;;3.05;1.40;;;;;;;;;;5109045;28;20027;-65
2021/11/26 10:37:20;;;;;;;3.03;2.10;;;;;;;;;;5099860;28;20118;-65
2021/11/26 10:39:46;;;;;;;4.30;1.80;;;;;;;;;;5109963;28;20554;-65
2021/11/26 10:42:12;;;;;;;2.47;1.50;;;;;;;;;;5111755;28;20055;-65
2021/11/26 10:44:47;;;;;;;2.55;1.10;;;;;;;;;;5109626;28;20059;-64
2021/11/26 10:47:22;;;;;;;2.45;1.48;;;;;;;;;;5109653;28;20095;-66
2021/11/26 10:50:34;;;;;;;2.28;1.23;;;;;;;;;;5110835;28;20024;-65
2021/11/26 10:56:45;;;;;;;1.75;1.20;;;;;;;;;;5107691;28;20031;-67
2021/11/26 11:01:06;;;;;;;2.17;1.23;;;;;;;;;;5110662;28;20433;-68
2021/11/26 11:03:33;;;;;;;3.15;1.70;;;;;;;;;;5108854;28;20036;-66
2021/11/26 11:05:59;;;;;;;2.20;1.40;;;;;;;;;;5111774;28;20521;-69
2021/11/26 11:08:25;;;;;;;2.33;1.20;;;;;;;;;;5107061;28;20023;-66
2021/11/26 11:10:51;;;;;;;2.80;1.60;;;;;;;;;;5109009;28;20524;-66
2021/11/26 11:13:24;;;;;;;2.20;1.02;;;;;;;;;;5111411;28;20038;-66
2021/11/26 11:15:51;;;;;;;1.27;0.85;;;;;;;;;;5108673;28;20028;-65
2021/11/26 11:18:17;;;;;;;0.90;0.68;;;;;;;;;;5109141;28;20505;-65
2021/11/26 11:20:44;;;;;;;1.20;0.70;;;;;;;;;;5105527;28;20430;-65
2021/11/26 11:23:10;;;;;;;5.38;2.03;;;;;;;;;;5105432;28;20061;-65
2021/11/26 11:25:36;;;;;;;6.50;2.10;;;;;;;;;;5105763;28;20023;-65
2021/11/26 11:28:04;;;;;;;0.70;0.70;;;;;;;;;;5106451;28;20515;-65
2021/11/26 11:30:31;;;;;;;1.30;0.80;;;;;;;;;;5105916;28;20035;-66
2021/11/26 11:32:57;;;;;;;0.98;0.80;;;;;;;;;;5109719;28;20422;-66
2021/11/26 11:35:24;;;;;;;2.63;1.10;;;;;;;;;;5101177;28;20164;-65
2021/11/26 11:37:53;;;;;;;1.73;1.17;;;;;;;;;;5097435;28;20025;-65
2021/11/26 11:40:26;;;;;;;2.40;1.20;;;;;;;;;;5111763;28;20104;-66
2021/11/26 11:42:53;;;;;;;2.47;1.08;;;;;;;;;;5110417;28;20028;-66
2021/11/26 11:45:22;;;;;;;1.88;1.00;;;;;;;;;;5102072;28;20560;-66
2021/11/26 11:47:49;;;;;;;1.30;0.90;;;;;;;;;;5099424;28;20024;-66
2021/11/26 11:50:22;;;;;;;1.40;0.80;;;;;;;;;;5105456;28;20020;-66
2021/11/26 11:52:52;;;;;;;1.85;1.20;;;;;;;;;;5093152;28;20051;-65
2021/11/26 11:55:18;;;;;;;0.93;0.80;;;;;;;;;;5110400;28;20463;-66
2021/11/26 11:57:44;;;;;;;5.10;1.10;;;;;;;;;;5107937;28;20024;-65
2021/11/26 12:00:16;;;;;;;1.92;0.93;;;;;;;;;;5105550;28;20038;-65
2021/11/26 12:02:43;;;;;;;2.00;1.05;;;;;;;;;;5108165;28;20493;-65
2021/11/26 12:05:26;;;;;;;1.65;1.27;;;;;;;;;;5108814;28;20020;-64
2021/11/26 12:08:03;;;;;;;2.55;1.10;;;;;;;;;;5109155;28;20110;-65
2021/11/26 12:10:29;;;;;;;1.97;1.10;;;;;;;;;;5101153;28;20081;-66
2021/11/26 12:12:56;;;;;;;2.15;1.00;;;;;;;;;;5098924;28;20265;-65
2021/11/26 12:15:23;;;;;;;2.05;0.93;;;;;;;;;;5106220;28;20031;-65
2021/11/26 12:17:58;;;;;;;1.80;0.90;;;;;;;;;;5102406;28;20478;-66
2021/11/26 12:20:26;;;;;;;1.17;1.00;;;;;;;;;;5106391;28;20098;-65
2021/11/26 12:22:54;;;;;;;;;;;;;;;;;;5109304;28;20018;-64
2021/11/26 12:25:27;;;;;;;1.77;1.05;;;;;;;;;;5108496;28;19911;-64
2021/11/26 12:27:57;;;;;;;1.60;1.20;;;;;;;;;;5109157;28;20055;-64
2021/11/26 12:30:23;;;;;;;7.22;1.60;;;;;;;;;;5104230;28;20375;-65
2021/11/26 12:32:49;;;;;;;2.08;1.50;;;;;;;;;;5108010;28;20120;-65
2021/11/26 12:35:15;;;;;;;2.80;1.50;;;;;;;;;;5107586;28;20034;-64
2021/11/26 12:37:42;;;;;;;3.88;1.50;;;;;;;;;;5110291;28;20111;-64
2021/11/26 12:40:12;;;;;;;1.67;1.13;;;;;;;;;;5109543;28;20451;-65
2021/11/26 12:42:39;;;;;;;3.00;1.45;;;;;;;;;;5108278;28;20027;-66
2021/11/26 12:45:08;;;;;;;1.63;1.08;;;;;;;;;;5107438;28;20031;-66
2021/11/26 12:47:35;;;;;;;1.77;1.00;;;;;;;;;;5107317;28;20024;-65
2021/11/26 12:52:32;;;;;;;2.60;1.20;;;;;;;;;;5111193;28;20379;-66
2021/11/26 12:54:58;;;;;;;2.45;1.30;;;;;;;;;;5110460;28;20020;-66
2021/11/26 12:57:30;;;;;;;3.53;1.05;;;;;;;;;;5111088;28;20490;-66
2021/11/26 13:00:01;;;;;;;4.45;2.13;;;;;;;;;;5111958;27;20233;-67
2021/11/26 13:02:38;;;;;;;5.15;2.88;;;;;;;;;;5112522;28;20482;-65
2021/11/26 13:05:09;;;;;;;4.25;2.30;;;;;;;;;;5099767;28;20394;-66
2021/11/26 13:07:35;;;;;;;3.10;1.77;;;;;;;;;;5113764;28;20536;-66
2021/11/26 13:10:07;;;;;;;4.60;1.88;;;;;;;;;;5113174;28;20038;-66
2021/11/26 13:12:37;;;;;;;5.03;2.00;;;;;;;;;;5111697;28;20039;-66
2021/11/26 13:15:05;;;;;;;3.45;1.85;;;;;;;;;;5112941;28;20029;-65
2021/11/26 13:17:39;;;;;;;6.20;2.42;;;;;;;;;;5111827;28;20016;-65
2021/11/26 13:20:09;;;;;;;4.78;2.50;;;;;;;;;;5111134;28;20024;-65
2021/11/26 13:22:44;;;;;;;7.07;2.17;;;;;;;;;;5113939;28;20160;-64
2021/11/26 13:25:11;;;;;;;3.63;2.20;;;;;;;;;;5112637;28;20016;-64
2021/11/26 13:27:54;;;;;;;3.88;2.05;;;;;;;;;;5111006;28;20102;-64
2021/11/26 13:30:22;;;;;;;5.93;2.55;;;;;;;;;;5111728;28;20035;-63
2021/11/26 13:32:49;;;;;;;4.67;2.50;;;;;;;;;;5111326;28;20089;-63
2021/11/26 13:35:24;;;;;;;4.65;2.45;;;;;;;;;;5113666;28;20848;-63
2021/11/26 13:37:51;;;;;;;3.15;1.75;;;;;;;;;;5112339;28;20099;-63
2021/11/26 13:40:17;;;;;;;3.60;2.55;;;;;;;;;;5114023;28;20024;-63
2021/11/26 13:42:50;;;;;;;4.72;2.80;;;;;;;;;;5110233;28;20024;-63
2021/11/26 13:45:16;;;;;;;5.68;3.05;;;;;;;;;;5110904;27;20500;-65
2021/11/26 13:47:42;;;;;;;5.95;3.47;;;;;;;;;;5111082;28;20114;-63
2021/11/26 13:50:08;;;;;;;6.32;3.72;;;;;;;;;;5109644;28;20498;-64
2021/11/26 13:52:34;;;;;;;5.95;3.30;;;;;;;;;;5113338;28;20031;-65
2021/11/26 13:55:00;;;;;;;7.35;4.25;;;;;;;;;;5111365;28;20024;-65
2021/11/26 13:57:27;;;;;;;7.93;4.32;;;;;;;;;;5110940;28;20054;-64
2021/11/26 14:00:01;;;;;;;7.68;4.30;;;;;;;;;;5109230;28;20075;-64
2021/11/26 14:02:27;;;;;;;7.40;3.72;;;;;;;;;;5110618;28;20471;-64
2021/11/26 14:04:53;;;;;;;6.72;3.67;;;;;;;;;;5112394;28;20107;-64
2021/11/26 14:07:22;;;;;;;6.00;3.58;;;;;;;;;;5112896;28;20035;-64
2021/11/26 14:09:49;;;;;;;4.88;3.10;;;;;;;;;;5110380;28;20031;-64
2021/11/26 14:12:16;;;;;;;4.57;2.53;;;;;;;;;;5110567;28;20054;-64
2021/11/26 14:14:43;;;;;;;8.13;2.40;;;;;;;;;;5110167;28;20090;-64
2021/11/26 14:17:09;;;;;;;4.30;2.33;;;;;;;;;;5110528;28;20023;-64
2021/11/26 14:19:39;;;;;;;4.50;2.70;;;;;;;;;;5112589;28;20032;-63
2021/11/26 14:22:06;;;;;;;4.63;2.55;;;;;;;;;;5111502;28;20024;-64
2021/11/26 14:24:34;;;;;;;8.60;2.90;;;;;;;;;;5109863;28;20544;-64
2021/11/26 14:27:01;;;;;;;4.05;2.60;;;;;;;;;;5103039;28;20044;-64
2021/11/26 14:29:28;;;;;;;4.38;2.20;;;;;;;;;;5109814;28;20016;-64
2021/11/26 14:31:54;;;;;;;5.68;2.83;;;;;;;;;;5110725;28;20039;-65
2021/11/26 14:34:20;;;;;;;4.95;2.45;;;;;;;;;;5113382;28;20471;-65
2021/11/26 14:36:47;;;;;;;6.53;2.72;;;;;;;;;;5111545;28;20035;-64